sensor_id;sensor_type;location;lat;lon;timestamp;pressure;altitude;pressure_sealevel;temperature;humidity
3132;BME280;62090;52.330;9.104;2023-03-25T00:00:24;99617.72;;;10.66;93.48
3132;BME280;62090;52.330;9.104;2023-03-25T00:02:54;99612.59;;;10.60;93.94
3132;BME280;62090;52.330;9.104;2023-03-25T00:05:24;99598.97;;;10.52;93.74
3132;BME280;62090;52.330;9.104;2023-03-25T00:07:54;99593.03;;;10.53;93.87
3132;BME280;62090;52.330;9.104;2023-03-25T00:10:24;99604.97;;;10.60;93.36
3132;BME280;62090;52.330;9.104;2023-03-25T00:12:57;99589.63;;;10.52;93.68
3132;BME280;62090;52.330;9.104;2023-03-25T00:15:30;99607.53;;;10.62;93.79
3132;BME280;62090;52.330;9.104;2023-03-25T00:18:01;99606.63;;;10.55;94.28
3132;BME280;62090;52.330;9.104;2023-03-25T00:20:31;99605.84;;;10.67;94.04
3132;BME280;62090;52.330;9.104;2023-03-25T00:23:01;99612.59;;;10.63;93.30
3132;BME280;62090;52.330;9.104;2023-03-25T00:25:30;99616.88;;;10.64;93.37
3132;BME280;62090;52.330;9.104;2023-03-25T00:28:03;99592.94;;;10.42;93.95
3132;BME280;62090;52.330;9.104;2023-03-25T00:30:36;99612.59;;;10.57;94.34
3132;BME280;62090;52.330;9.104;2023-03-25T00:33:06;99552.88;;;10.14;94.57
3132;BME280;62090;52.330;9.104;2023-03-25T00:35:37;99619.28;;;10.43;95.04
3132;BME280;62090;52.330;9.104;2023-03-25T00:38:11;99575.88;;;10.28;95.20
3132;BME280;62090;52.330;9.104;2023-03-25T00:40:41;99605.75;;;10.53;95.07
3132;BME280;62090;52.330;9.104;2023-03-25T00:43:15;99596.38;;;10.47;95.02
3132;BME280;62090;52.330;9.104;2023-03-25T00:45:45;99614.22;;;10.47;95.22
3132;BME280;62090;52.330;9.104;2023-03-25T00:48:15;99615.16;;;10.60;94.36
3132;BME280;62090;52.330;9.104;2023-03-25T00:50:45;99608.34;;;10.59;94.35
3132;BME280;62090;52.330;9.104;2023-03-25T00:53:15;99612.66;;;10.69;93.62
3132;BME280;62090;52.330;9.104;2023-03-25T00:55:45;99606.66;;;10.64;94.06
3132;BME280;62090;52.330;9.104;2023-03-25T00:58:18;99604.16;;;10.69;94.31
3132;BME280;62090;52.330;9.104;2023-03-25T01:00:47;99601.56;;;10.61;94.06
3132;BME280;62090;52.330;9.104;2023-03-25T01:03:17;99592.09;;;10.42;94.29
3132;BME280;62090;52.330;9.104;2023-03-25T01:05:47;99598.97;;;10.53;94.07
3132;BME280;62090;52.330;9.104;2023-03-25T01:08:20;99600.75;;;10.62;93.77
3132;BME280;62090;52.330;9.104;2023-03-25T01:10:57;99590.50;;;10.57;93.75
3132;BME280;62090;52.330;9.104;2023-03-25T01:13:30;99604.13;;;10.64;93.73
3132;BME280;62090;52.330;9.104;2023-03-25T01:16:00;99604.97;;;10.63;94.19
3132;BME280;62090;52.330;9.104;2023-03-25T01:18:30;99598.16;;;10.59;94.82
3132;BME280;62090;52.330;9.104;2023-03-25T01:21:04;99602.44;;;10.65;94.29
3132;BME280;62090;52.330;9.104;2023-03-25T01:23:34;99586.25;;;10.55;94.70
3132;BME280;62090;52.330;9.104;2023-03-25T01:26:05;99536.81;;;10.20;94.18
3132;BME280;62090;52.330;9.104;2023-03-25T01:28:39;99609.19;;;10.58;94.82
3132;BME280;62090;52.330;9.104;2023-03-25T01:31:10;99601.56;;;10.64;94.93
3132;BME280;62090;52.330;9.104;2023-03-25T01:33:41;99606.72;;;10.67;95.61
3132;BME280;62090;52.330;9.104;2023-03-25T01:36:12;99615.16;;;10.65;98.03
3132;BME280;62090;52.330;9.104;2023-03-25T01:38:41;99608.31;;;10.53;99.48
3132;BME280;62090;52.330;9.104;2023-03-25T01:41:13;99602.28;;;10.36;100.00
3132;BME280;62090;52.330;9.104;2023-03-25T01:44:02;99603.94;;;10.37;100.00
3132;BME280;62090;52.330;9.104;2023-03-25T01:46:32;99607.41;;;10.45;100.00
3132;BME280;62090;52.330;9.104;2023-03-25T01:49:06;99590.34;;;10.30;100.00
3132;BME280;62090;52.330;9.104;2023-03-25T01:51:42;99609.97;;;10.46;100.00
3132;BME280;62090;52.330;9.104;2023-03-25T01:54:14;99609.16;;;10.50;100.00
3132;BME280;62090;52.330;9.104;2023-03-25T01:56:46;99614.25;;;10.50;100.00
3132;BME280;62090;52.330;9.104;2023-03-25T01:59:23;99606.63;;;10.58;99.97
3132;BME280;62090;52.330;9.104;2023-03-25T02:01:55;99606.53;;;10.40;100.00
3132;BME280;62090;52.330;9.104;2023-03-25T02:04:32;99601.56;;;10.59;99.23
3132;BME280;62090;52.330;9.104;2023-03-25T02:07:06;99610.94;;;10.62;99.34
3132;BME280;62090;52.330;9.104;2023-03-25T02:09:37;99596.41;;;10.49;99.87
3132;BME280;62090;52.330;9.104;2023-03-25T02:12:09;99597.22;;;10.48;99.96
3132;BME280;62090;52.330;9.104;2023-03-25T02:14:41;99604.88;;;10.45;99.15
3132;BME280;62090;52.330;9.104;2023-03-25T02:17:17;99595.50;;;10.39;99.04
3132;BME280;62090;52.330;9.104;2023-03-25T02:20:27;99596.34;;;10.43;97.70
3132;BME280;62090;52.330;9.104;2023-03-25T02:23:32;99593.78;;;10.38;98.12
3132;BME280;62090;52.330;9.104;2023-03-25T02:26:24;99588.66;;;10.34;97.34
3132;BME280;62090;52.330;9.104;2023-03-25T02:29:02;99595.47;;;10.36;96.83
3132;BME280;62090;52.330;9.104;2023-03-25T02:31:53;99597.19;;;10.42;97.17
3132;BME280;62090;52.330;9.104;2023-03-25T02:34:45;99577.66;;;10.38;95.59
3132;BME280;62090;52.330;9.104;2023-03-25T02:37:54;99550.47;;;10.31;95.57
3132;BME280;62090;52.330;9.104;2023-03-25T02:40:37;99576.00;;;10.46;94.53
3132;BME280;62090;52.330;9.104;2023-03-25T02:43:16;99564.06;;;10.37;93.89
3132;BME280;62090;52.330;9.104;2023-03-25T02:45:50;99565.84;;;10.46;93.95
3132;BME280;62090;52.330;9.104;2023-03-25T02:48:26;99566.66;;;10.43;94.09
3132;BME280;62090;52.330;9.104;2023-03-25T02:51:03;99560.69;;;10.43;94.10
3132;BME280;62090;52.330;9.104;2023-03-25T02:53:40;99564.09;;;10.42;94.23
3132;BME280;62090;52.330;9.104;2023-03-25T02:56:15;99550.41;;;10.26;95.01
3132;BME280;62090;52.330;9.104;2023-03-25T02:58:49;99550.44;;;10.28;96.07
3132;BME280;62090;52.330;9.104;2023-03-25T03:01:21;99564.06;;;10.39;96.48
3132;BME280;62090;52.330;9.104;2023-03-25T03:03:54;99503.56;;;10.01;96.28
3132;BME280;62090;52.330;9.104;2023-03-25T03:06:24;99551.28;;;10.31;95.90
3132;BME280;62090;52.330;9.104;2023-03-25T03:09:31;99552.19;;;10.35;96.07
3132;BME280;62090;52.330;9.104;2023-03-25T03:12:15;99552.13;;;10.29;95.37
3132;BME280;62090;52.330;9.104;2023-03-25T03:14:59;99549.66;;;10.39;94.49
3132;BME280;62090;52.330;9.104;2023-03-25T03:17:39;99525.81;;;10.28;95.02
3132;BME280;62090;52.330;9.104;2023-03-25T03:20:16;99548.84;;;10.45;95.07
3132;BME280;62090;52.330;9.104;2023-03-25T03:22:56;99542.84;;;10.37;93.28
3132;BME280;62090;52.330;9.104;2023-03-25T03:25:36;99537.66;;;10.23;91.85
3132;BME280;62090;52.330;9.104;2023-03-25T03:28:13;99557.31;;;10.41;92.06
3132;BME280;62090;52.330;9.104;2023-03-25T03:30:47;99563.25;;;10.40;91.35
3132;BME280;62090;52.330;9.104;2023-03-25T03:33:23;99554.75;;;10.39;91.71
3132;BME280;62090;52.330;9.104;2023-03-25T03:35:57;99559.78;;;10.33;91.73
3132;BME280;62090;52.330;9.104;2023-03-25T03:38:33;99566.63;;;10.36;91.08
3132;BME280;62090;52.330;9.104;2023-03-25T03:41:10;99561.53;;;10.42;91.71
3132;BME280;62090;52.330;9.104;2023-03-25T03:43:45;99559.94;;;10.56;91.27
3132;BME280;62090;52.330;9.104;2023-03-25T03:46:20;99570.09;;;10.50;90.32
3132;BME280;62090;52.330;9.104;2023-03-25T03:48:54;99564.97;;;10.44;91.02
3132;BME280;62090;52.330;9.104;2023-03-25T03:51:29;99544.50;;;10.29;90.53
3132;BME280;62090;52.330;9.104;2023-03-25T03:54:03;99546.16;;;10.27;88.44
3132;BME280;62090;52.330;9.104;2023-03-25T03:56:39;99572.59;;;10.47;87.75
3132;BME280;62090;52.330;9.104;2023-03-25T03:59:15;99492.50;;;9.93;88.23
3132;BME280;62090;52.330;9.104;2023-03-25T04:01:50;99568.28;;;10.31;89.52
3132;BME280;62090;52.330;9.104;2023-03-25T04:04:25;99562.38;;;10.35;89.87
3132;BME280;62090;52.330;9.104;2023-03-25T04:06:59;99566.59;;;10.34;89.43
3132;BME280;62090;52.330;9.104;2023-03-25T04:09:35;99565.75;;;10.34;89.34
3132;BME280;62090;52.330;9.104;2023-03-25T04:12:15;99502.69;;;9.98;88.64
3132;BME280;62090;52.330;9.104;2023-03-25T04:14:46;99564.78;;;10.16;90.00
3132;BME280;62090;52.330;9.104;2023-03-25T04:17:16;99556.31;;;10.18;91.05
3132;BME280;62090;52.330;9.104;2023-03-25T04:19:46;99580.13;;;10.27;90.49
3132;BME280;62090;52.330;9.104;2023-03-25T04:22:19;99580.84;;;10.12;89.68
3132;BME280;62090;52.330;9.104;2023-03-25T04:24:50;99562.97;;;10.03;90.73
3132;BME280;62090;52.330;9.104;2023-03-25T04:27:23;99575.75;;;10.09;90.56
3132;BME280;62090;52.330;9.104;2023-03-25T04:29:55;99586.66;;;9.99;91.35
3132;BME280;62090;52.330;9.104;2023-03-25T04:32:27;99577.31;;;9.95;90.76
3132;BME280;62090;52.330;9.104;2023-03-25T04:34:57;99579.09;;;10.05;91.09
3132;BME280;62090;52.330;9.104;2023-03-25T04:37:27;99555.06;;;9.70;91.82
3132;BME280;62090;52.330;9.104;2023-03-25T04:39:59;99576.44;;;9.92;92.23
3132;BME280;62090;52.330;9.104;2023-03-25T04:42:35;99576.47;;;9.99;91.86
3132;BME280;62090;52.330;9.104;2023-03-25T04:45:05;99573.78;;;9.78;91.21
3132;BME280;62090;52.330;9.104;2023-03-25T04:47:40;99570.38;;;9.79;91.49
3132;BME280;62090;52.330;9.104;2023-03-25T04:50:19;99578.03;;;9.78;91.51
3132;BME280;62090;52.330;9.104;2023-03-25T04:52:50;99547.25;;;9.50;91.77
3132;BME280;62090;52.330;9.104;2023-03-25T04:55:20;99572.63;;;9.47;92.65
3132;BME280;62090;52.330;9.104;2023-03-25T04:57:54;99585.47;;;9.59;92.69
3132;BME280;62090;52.330;9.104;2023-03-25T05:00:25;99570.94;;;9.48;92.60
3132;BME280;62090;52.330;9.104;2023-03-25T05:02:55;99577.75;;;9.49;92.40
3132;BME280;62090;52.330;9.104;2023-03-25T05:05:27;99582.00;;;9.51;92.78
3132;BME280;62090;52.330;9.104;2023-03-25T05:07:57;99529.13;;;9.18;93.22
3132;BME280;62090;52.330;9.104;2023-03-25T05:10:27;99583.56;;;9.39;93.16
3132;BME280;62090;52.330;9.104;2023-03-25T05:13:01;99576.09;;;9.54;94.09
3132;BME280;62090;52.330;9.104;2023-03-25T05:15:33;99551.47;;;9.50;93.78
3132;BME280;62090;52.330;9.104;2023-03-25T05:18:06;99539.56;;;9.44;93.92
3132;BME280;62090;52.330;9.104;2023-03-25T05:20:40;99568.63;;;9.70;93.78
3132;BME280;62090;52.330;9.104;2023-03-25T05:23:11;99572.81;;;9.65;94.49
3132;BME280;62090;52.330;9.104;2023-03-25T05:25:44;99561.69;;;9.51;94.55
3132;BME280;62090;52.330;9.104;2023-03-25T05:28:18;99567.69;;;9.61;94.77
3132;BME280;62090;52.330;9.104;2023-03-25T05:30:47;99577.94;;;9.67;94.97
3132;BME280;62090;52.330;9.104;2023-03-25T05:33:17;99571.19;;;9.75;95.20
3132;BME280;62090;52.330;9.104;2023-03-25T05:35:48;99553.44;;;9.78;94.45
3132;BME280;62090;52.330;9.104;2023-03-25T05:38:18;99553.41;;;9.75;95.13
3132;BME280;62090;52.330;9.104;2023-03-25T05:40:48;99575.50;;;9.82;94.67
3132;BME280;62090;52.330;9.104;2023-03-25T05:43:20;99572.16;;;9.86;94.05
3132;BME280;62090;52.330;9.104;2023-03-25T05:45:50;99567.06;;;9.89;94.05
3132;BME280;62090;52.330;9.104;2023-03-25T05:48:20;99545.00;;;9.82;94.73
3132;BME280;62090;52.330;9.104;2023-03-25T05:50:50;99573.03;;;9.88;93.59
3132;BME280;62090;52.330;9.104;2023-03-25T05:53:22;99585.78;;;9.94;94.39
3132;BME280;62090;52.330;9.104;2023-03-25T05:55:52;99556.88;;;9.86;94.05
3132;BME280;62090;52.330;9.104;2023-03-25T05:58:24;99579.03;;;9.99;94.61
3132;BME280;62090;52.330;9.104;2023-03-25T06:00:55;99579.00;;;9.96;93.86
3132;BME280;62090;52.330;9.104;2023-03-25T06:03:25;99538.19;;;9.78;93.53
3132;BME280;62090;52.330;9.104;2023-03-25T06:05:55;99584.97;;;9.98;92.36
3132;BME280;62090;52.330;9.104;2023-03-25T06:08:25;99589.19;;;9.99;92.49
3132;BME280;62090;52.330;9.104;2023-03-25T06:10:56;99523.59;;;9.59;92.89
3132;BME280;62090;52.330;9.104;2023-03-25T06:13:29;99561.13;;;9.86;92.49
3132;BME280;62090;52.330;9.104;2023-03-25T06:15:59;99591.75;;;9.99;93.02
3132;BME280;62090;52.330;9.104;2023-03-25T06:18:29;99568.81;;;9.95;92.85
3132;BME280;62090;52.330;9.104;2023-03-25T06:20:59;99580.63;;;9.87;93.26
3132;BME280;62090;52.330;9.104;2023-03-25T06:23:30;99590.88;;;9.96;93.23
3132;BME280;62090;52.330;9.104;2023-03-25T06:26:01;99598.59;;;10.03;92.51
3132;BME280;62090;52.330;9.104;2023-03-25T06:28:33;99600.25;;;9.98;93.51
3132;BME280;62090;52.330;9.104;2023-03-25T06:31:04;99595.19;;;10.01;93.81
3132;BME280;62090;52.330;9.104;2023-03-25T06:33:34;99593.63;;;10.17;93.12
3132;BME280;62090;52.330;9.104;2023-03-25T06:36:10;99591.94;;;10.18;92.51
3132;BME280;62090;52.330;9.104;2023-03-25T06:38:41;99593.53;;;10.11;91.71
3132;BME280;62090;52.330;9.104;2023-03-25T06:41:13;99602.03;;;10.11;91.93
3132;BME280;62090;52.330;9.104;2023-03-25T06:43:56;99592.69;;;10.07;92.33
3132;BME280;62090;52.330;9.104;2023-03-25T06:46:48;99584.41;;;10.30;90.87
3132;BME280;62090;52.330;9.104;2023-03-25T06:49:29;99577.59;;;10.26;90.65
3132;BME280;62090;52.330;9.104;2023-03-25T06:51:59;99578.38;;;10.19;90.75
3132;BME280;62090;52.330;9.104;2023-03-25T06:54:29;99563.03;;;10.12;90.06
3132;BME280;62090;52.330;9.104;2023-03-25T06:56:59;99603.94;;;10.31;90.00
3132;BME280;62090;52.330;9.104;2023-03-25T06:59:31;99594.63;;;10.39;89.83
3132;BME280;62090;52.330;9.104;2023-03-25T07:02:02;99596.34;;;10.43;90.22
3132;BME280;62090;52.330;9.104;2023-03-25T07:04:32;99596.44;;;10.52;89.14
3132;BME280;62090;52.330;9.104;2023-03-25T07:07:02;99596.38;;;10.46;89.71
3132;BME280;62090;52.330;9.104;2023-03-25T07:09:32;99601.47;;;10.44;90.71
3132;BME280;62090;52.330;9.104;2023-03-25T07:12:02;99609.84;;;10.31;92.72
3132;BME280;62090;52.330;9.104;2023-03-25T07:14:37;99598.78;;;10.23;94.42
3132;BME280;62090;52.330;9.104;2023-03-25T07:17:07;99604.63;;;10.14;95.38
3132;BME280;62090;52.330;9.104;2023-03-25T07:19:38;99610.63;;;10.21;93.82
3132;BME280;62090;52.330;9.104;2023-03-25T07:22:09;99624.25;;;10.26;94.71
3132;BME280;62090;52.330;9.104;2023-03-25T07:24:39;99614.91;;;10.25;93.84
3132;BME280;62090;52.330;9.104;2023-03-25T07:27:09;99626.03;;;10.39;94.30
3132;BME280;62090;52.330;9.104;2023-03-25T07:29:48;99618.38;;;10.35;92.16
3132;BME280;62090;52.330;9.104;2023-03-25T07:32:18;99602.22;;;10.31;92.83
3132;BME280;62090;52.330;9.104;2023-03-25T07:34:48;99505.94;;;9.80;93.11
3132;BME280;62090;52.330;9.104;2023-03-25T07:37:18;99609.09;;;10.43;92.94
3132;BME280;62090;52.330;9.104;2023-03-25T07:39:48;99593.88;;;10.50;93.47
3132;BME280;62090;52.330;9.104;2023-03-25T07:42:18;99603.22;;;10.54;93.71
3132;BME280;62090;52.330;9.104;2023-03-25T07:45:03;99593.00;;;10.50;92.44
3132;BME280;62090;52.330;9.104;2023-03-25T07:47:33;99607.44;;;10.49;92.44
3132;BME280;62090;52.330;9.104;2023-03-25T07:50:04;99599.72;;;10.42;91.89
3132;BME280;62090;52.330;9.104;2023-03-25T07:52:34;99591.31;;;10.46;91.97
3132;BME280;62090;52.330;9.104;2023-03-25T07:55:05;99604.91;;;10.52;92.21
3132;BME280;62090;52.330;9.104;2023-03-25T07:57:35;99615.91;;;10.47;91.57
3132;BME280;62090;52.330;9.104;2023-03-25T08:00:10;99597.19;;;10.42;91.31
3132;BME280;62090;52.330;9.104;2023-03-25T08:02:40;99598.94;;;10.46;90.55
3132;BME280;62090;52.330;9.104;2023-03-25T08:05:10;99565.75;;;10.31;91.81
3132;BME280;62090;52.330;9.104;2023-03-25T08:07:47;99605.81;;;10.64;89.83
3132;BME280;62090;52.330;9.104;2023-03-25T08:10:17;99553.75;;;10.18;90.04
3132;BME280;62090;52.330;9.104;2023-03-25T08:12:50;99607.41;;;10.48;89.83
3132;BME280;62090;52.330;9.104;2023-03-25T08:15:23;99620.19;;;10.54;90.66
3132;BME280;62090;52.330;9.104;2023-03-25T08:17:53;99625.31;;;10.57;90.34
3132;BME280;62090;52.330;9.104;2023-03-25T08:20:23;99621.19;;;10.80;92.81
3132;BME280;62090;52.330;9.104;2023-03-25T08:22:53;99586.47;;;10.97;88.01
3132;BME280;62090;52.330;9.104;2023-03-25T08:25:24;99635.78;;;11.04;88.55
3132;BME280;62090;52.330;9.104;2023-03-25T08:27:55;99616.97;;;10.82;92.14
3132;BME280;62090;52.330;9.104;2023-03-25T08:30:27;99633.19;;;10.98;93.99
3132;BME280;62090;52.330;9.104;2023-03-25T08:32:57;99632.16;;;10.69;95.23
3132;BME280;62090;52.330;9.104;2023-03-25T08:35:27;99633.88;;;10.68;95.81
3132;BME280;62090;52.330;9.104;2023-03-25T08:37:57;99633.03;;;10.71;99.20
3132;BME280;62090;52.330;9.104;2023-03-25T08:40:32;99638.13;;;10.69;99.65
3132;BME280;62090;52.330;9.104;2023-03-25T08:43:03;99608.09;;;10.20;100.00
3132;BME280;62090;52.330;9.104;2023-03-25T08:45:36;99647.34;;;10.49;100.00
3132;BME280;62090;52.330;9.104;2023-03-25T08:48:06;99630.19;;;10.27;100.00
3132;BME280;62090;52.330;9.104;2023-03-25T08:50:36;99642.09;;;10.29;100.00
3132;BME280;62090;52.330;9.104;2023-03-25T08:53:05;99639.59;;;10.37;100.00
3132;BME280;62090;52.330;9.104;2023-03-25T08:55:36;99633.53;;;10.21;100.00
3132;BME280;62090;52.330;9.104;2023-03-25T08:58:06;99632.69;;;10.22;100.00
3132;BME280;62090;52.330;9.104;2023-03-25T09:00:39;99639.53;;;10.28;100.00
3132;BME280;62090;52.330;9.104;2023-03-25T09:03:08;99618.19;;;10.13;100.00
3132;BME280;62090;52.330;9.104;2023-03-25T09:05:39;99538.81;;;9.57;100.00
3132;BME280;62090;52.330;9.104;2023-03-25T09:08:08;99632.81;;;10.34;100.00
3132;BME280;62090;52.330;9.104;2023-03-25T09:10:39;99638.72;;;10.32;100.00
3132;BME280;62090;52.330;9.104;2023-03-25T09:13:09;99640.56;;;10.54;100.00
3132;BME280;62090;52.330;9.104;2023-03-25T09:15:41;99633.03;;;10.66;100.00
3132;BME280;62090;52.330;9.104;2023-03-25T09:18:11;99609.97;;;10.48;100.00
3132;BME280;62090;52.330;9.104;2023-03-25T09:20:41;99605.75;;;10.50;100.00
3132;BME280;62090;52.330;9.104;2023-03-25T09:23:13;99609.19;;;10.58;100.00
3132;BME280;62090;52.330;9.104;2023-03-25T09:25:43;99608.38;;;10.65;100.00
3132;BME280;62090;52.330;9.104;2023-03-25T09:28:13;99629.00;;;11.05;99.98
3132;BME280;62090;52.330;9.104;2023-03-25T09:30:45;99618.81;;;11.17;98.38
3132;BME280;62090;52.330;9.104;2023-03-25T09:33:15;99598.38;;;10.98;95.82
3132;BME280;62090;52.330;9.104;2023-03-25T09:35:45;99623.03;;;11.04;95.77
3132;BME280;62090;52.330;9.104;2023-03-25T09:38:16;99629.91;;;11.25;93.86
3132;BME280;62090;52.330;9.104;2023-03-25T09:40:45;99612.06;;;11.28;93.55
3132;BME280;62090;52.330;9.104;2023-03-25T09:43:25;99593.38;;;11.29;92.76
3132;BME280;62090;52.330;9.104;2023-03-25T09:46:00;99613.03;;;11.66;90.71
3132;BME280;62090;52.330;9.104;2023-03-25T09:48:35;99609.63;;;11.67;88.92
3132;BME280;62090;52.330;9.104;2023-03-25T09:51:11;99612.22;;;11.79;86.26
3132;BME280;62090;52.330;9.104;2023-03-25T09:53:45;99615.63;;;11.81;89.44
3132;BME280;62090;52.330;9.104;2023-03-25T09:56:20;99605.44;;;11.78;85.09
3132;BME280;62090;52.330;9.104;2023-03-25T09:58:53;99624.16;;;11.83;85.64
3132;BME280;62090;52.330;9.104;2023-03-25T10:01:34;99609.66;;;11.85;84.80
3132;BME280;62090;52.330;9.104;2023-03-25T10:04:30;99610.53;;;12.09;85.02
3132;BME280;62090;52.330;9.104;2023-03-25T10:07:19;99602.88;;;11.98;82.78
3132;BME280;62090;52.330;9.104;2023-03-25T10:09:58;99535.59;;;11.64;81.18
3132;BME280;62090;52.330;9.104;2023-03-25T10:12:36;99548.44;;;11.89;80.62
3132;BME280;62090;52.330;9.104;2023-03-25T10:15:20;99587.53;;;12.27;79.56
3132;BME280;62090;52.330;9.104;2023-03-25T10:18:10;99596.88;;;12.49;77.70
3132;BME280;62090;52.330;9.104;2023-03-25T10:20:49;99606.28;;;12.31;76.57
3132;BME280;62090;52.330;9.104;2023-03-25T10:23:27;99578.19;;;12.02;76.84
3132;BME280;62090;52.330;9.104;2023-03-25T10:26:02;99608.00;;;12.15;77.50
3132;BME280;62090;52.330;9.104;2023-03-25T10:28:37;99509.25;;;11.50;77.61
3132;BME280;62090;52.330;9.104;2023-03-25T10:31:13;99577.31;;;11.84;75.88
3132;BME280;62090;52.330;9.104;2023-03-25T10:33:51;99615.66;;;12.21;75.45
3132;BME280;62090;52.330;9.104;2023-03-25T10:36:28;99610.53;;;12.24;75.90
3132;BME280;62090;52.330;9.104;2023-03-25T10:39:01;99599.44;;;12.39;75.58
3132;BME280;62090;52.330;9.104;2023-03-25T10:41:36;99610.50;;;12.48;74.68
3132;BME280;62090;52.330;9.104;2023-03-25T10:44:10;99605.41;;;12.42;75.71
3132;BME280;62090;52.330;9.104;2023-03-25T10:46:44;99567.13;;;12.24;74.51
3132;BME280;62090;52.330;9.104;2023-03-25T10:49:20;99608.81;;;12.35;75.04
3132;BME280;62090;52.330;9.104;2023-03-25T10:51:52;99607.97;;;12.24;75.96
3132;BME280;62090;52.330;9.104;2023-03-25T10:54:28;99601.16;;;12.38;75.50
3132;BME280;62090;52.330;9.104;2023-03-25T10:57:02;99598.59;;;12.47;76.02
3132;BME280;62090;52.330;9.104;2023-03-25T10:59:36;99593.44;;;12.62;76.05
3132;BME280;62090;52.330;9.104;2023-03-25T11:02:12;99617.31;;;12.63;73.83
3132;BME280;62090;52.330;9.104;2023-03-25T11:04:48;99517.72;;;12.33;74.93
3132;BME280;62090;52.330;9.104;2023-03-25T11:07:22;99589.13;;;12.84;73.92
3132;BME280;62090;52.330;9.104;2023-03-25T11:10:07;99574.63;;;12.88;72.50
3132;BME280;62090;52.330;9.104;2023-03-25T11:12:38;99576.38;;;12.77;73.70
3132;BME280;62090;52.330;9.104;2023-03-25T11:15:13;99617.31;;;12.61;74.00
3132;BME280;62090;52.330;9.104;2023-03-25T11:17:46;99565.44;;;12.02;75.51
3132;BME280;62090;52.330;9.104;2023-03-25T11:20:21;99618.19;;;12.39;73.50
3132;BME280;62090;52.330;9.104;2023-03-25T11:23:01;99619.84;;;12.60;75.89
3132;BME280;62090;52.330;9.104;2023-03-25T11:25:36;99608.78;;;12.61;78.41
3132;BME280;62090;52.330;9.104;2023-03-25T11:28:15;99614.69;;;12.83;76.55
3132;BME280;62090;52.330;9.104;2023-03-25T11:31:08;99607.91;;;12.65;75.91
3132;BME280;62090;52.330;9.104;2023-03-25T11:33:40;99634.28;;;12.75;76.00
3132;BME280;62090;52.330;9.104;2023-03-25T11:36:21;99612.13;;;12.81;75.17
3132;BME280;62090;52.330;9.104;2023-03-25T11:38:55;99605.28;;;12.86;74.69
3132;BME280;62090;52.330;9.104;2023-03-25T11:41:34;99595.09;;;12.82;74.33
3132;BME280;62090;52.330;9.104;2023-03-25T11:44:05;99588.31;;;12.68;72.98
3132;BME280;62090;52.330;9.104;2023-03-25T11:46:40;99604.47;;;12.81;75.09
3132;BME280;62090;52.330;9.104;2023-03-25T11:49:18;99596.75;;;12.95;74.46
3132;BME280;62090;52.330;9.104;2023-03-25T11:51:56;99608.72;;;12.75;75.02
3132;BME280;62090;52.330;9.104;2023-03-25T11:54:28;99602.84;;;12.50;75.23
3132;BME280;62090;52.330;9.104;2023-03-25T11:56:59;99609.63;;;12.67;75.46
3132;BME280;62090;52.330;9.104;2023-03-25T11:59:36;99574.78;;;12.30;78.02
3132;BME280;62090;52.330;9.104;2023-03-25T12:02:19;99590.94;;;12.35;79.39
3132;BME280;62090;52.330;9.104;2023-03-25T12:04:58;99618.19;;;12.36;79.41
3132;BME280;62090;52.330;9.104;2023-03-25T12:07:40;99617.34;;;12.34;81.94
3132;BME280;62090;52.330;9.104;2023-03-25T12:10:16;99593.53;;;12.20;83.49
3132;BME280;62090;52.330;9.104;2023-03-25T12:12:54;99592.63;;;12.44;83.96
3132;BME280;62090;52.330;9.104;2023-03-25T12:15:34;99588.34;;;12.49;83.95
3132;BME280;62090;52.330;9.104;2023-03-25T12:18:34;99595.94;;;12.81;83.75
3132;BME280;62090;52.330;9.104;2023-03-25T12:21:13;99597.63;;;12.92;83.95
3132;BME280;62090;52.330;9.104;2023-03-25T12:24:03;99588.22;;;12.96;82.92
3132;BME280;62090;52.330;9.104;2023-03-25T12:26:41;99594.22;;;12.89;80.26
3132;BME280;62090;52.330;9.104;2023-03-25T12:29:24;99555.06;;;12.79;83.21
3132;BME280;62090;52.330;9.104;2023-03-25T12:32:06;99574.53;;;13.06;83.15
3132;BME280;62090;52.330;9.104;2023-03-25T12:34:51;99480.16;;;12.62;80.85
3132;BME280;62090;52.330;9.104;2023-03-25T12:37:29;99575.31;;;13.28;77.04
3132;BME280;62090;52.330;9.104;2023-03-25T12:40:24;99574.53;;;13.06;76.54
3132;BME280;62090;52.330;9.104;2023-03-25T12:43:02;99575.44;;;12.99;75.96
3132;BME280;62090;52.330;9.104;2023-03-25T12:45:43;99577.19;;;12.82;76.81
3132;BME280;62090;52.330;9.104;2023-03-25T12:48:25;99573.81;;;12.77;76.92
3132;BME280;62090;52.330;9.104;2023-03-25T12:51:06;99578.13;;;12.56;75.70
3132;BME280;62090;52.330;9.104;2023-03-25T12:53:49;99546.66;;;12.36;77.46
3132;BME280;62090;52.330;9.104;2023-03-25T12:56:43;99578.13;;;12.50;79.46
3132;BME280;62090;52.330;9.104;2023-03-25T12:59:25;99570.47;;;12.43;80.36
3132;BME280;62090;52.330;9.104;2023-03-25T13:02:08;99583.22;;;12.65;80.27
3132;BME280;62090;52.330;9.104;2023-03-25T13:04:53;99598.56;;;12.67;79.27
3132;BME280;62090;52.330;9.104;2023-03-25T13:07:32;99582.38;;;12.59;79.61
3132;BME280;62090;52.330;9.104;2023-03-25T13:10:06;99596.81;;;12.70;81.12
3132;BME280;62090;52.330;9.104;2023-03-25T13:12:47;99589.25;;;12.42;84.06
3132;BME280;62090;52.330;9.104;2023-03-25T13:15:21;99604.53;;;12.43;85.03
3132;BME280;62090;52.330;9.104;2023-03-25T13:17:56;99607.13;;;12.22;86.50
3132;BME280;62090;52.330;9.104;2023-03-25T13:20:31;99616.50;;;12.18;87.76
3132;BME280;62090;52.330;9.104;2023-03-25T13:23:05;99602.03;;;11.89;91.51
3132;BME280;62090;52.330;9.104;2023-03-25T13:25:44;99626.69;;;11.79;91.76
3132;BME280;62090;52.330;9.104;2023-03-25T13:28:22;99637.75;;;11.73;93.20
3132;BME280;62090;52.330;9.104;2023-03-25T13:30:55;99628.38;;;11.80;93.89
3132;BME280;62090;52.330;9.104;2023-03-25T13:33:27;99614.78;;;11.73;94.97
3132;BME280;62090;52.330;9.104;2023-03-25T13:36:08;99639.44;;;11.82;95.68
3132;BME280;62090;52.330;9.104;2023-03-25T13:38:42;99637.72;;;11.79;96.69
3132;BME280;62090;52.330;9.104;2023-03-25T13:41:19;99647.03;;;11.62;98.02
3132;BME280;62090;52.330;9.104;2023-03-25T13:43:59;99622.34;;;11.55;99.14
3132;BME280;62090;52.330;9.104;2023-03-25T13:46:35;99622.31;;;11.44;97.60
3132;BME280;62090;52.330;9.104;2023-03-25T13:49:12;99642.75;;;11.46;97.04
3132;BME280;62090;52.330;9.104;2023-03-25T13:51:44;99555.88;;;10.97;97.11